Time;durP1;ratioP1;P1;durP2;ratioP2;P2;SDS_P1;SDS_P2;PMS_P1;PMS_P2;Temp;Humidity;BMP_temperature;BMP_pressure;BME280_temperature;BME280_humidity;BME280_pressure;Samples;Min_cycle;Max_cycle;Signal;HPM_P1;HPM_P2
2023/03/01 00:02:04;;;;;;;;;16.25;12.00;;;;;3.52;51.17;102481.94;5021213;28;67838;-77
2023/03/01 00:04:30;;;;;;;;;13.50;9.50;;;;;3.53;51.36;102483.66;5021810;28;45409;-77
2023/03/01 00:06:55;;;;;;;;;17.50;9.00;;;;;3.53;51.64;102484.56;5022258;28;45425;-77
2023/03/01 00:09:21;;;;;;;;;17.25;11.50;;;;;3.53;51.84;102489.72;5021042;28;74280;-77
2023/03/01 00:11:48;;;;;;;;;16.00;12.00;;;;;3.51;51.82;102487.91;5004075;28;49155;-77
2023/03/01 00:14:15;;;;;;;;;15.25;13.00;;;;;3.46;52.06;102483.50;5005269;28;45409;-76
2023/03/01 00:16:42;;;;;;;;;16.00;12.50;;;;;3.42;51.91;102484.25;5041940;28;45388;-77
2023/03/01 00:19:11;;;;;;;;;13.25;9.25;;;;;3.43;52.29;102491.13;5041461;28;45414;-76
2023/03/01 00:21:37;;;;;;;;;15.75;10.50;;;;;3.43;52.53;102490.28;5023951;28;45449;-76
2023/03/01 00:24:03;;;;;;;;;14.75;11.00;;;;;3.36;52.00;102481.50;5041080;28;65974;-76
2023/03/01 00:26:28;;;;;;;;;10.50;9.75;;;;;3.40;52.80;102485.91;5024090;28;45488;-76
2023/03/01 00:28:55;;;;;;;;;15.75;10.00;;;;;3.38;52.42;102487.56;5041596;28;45531;-77
2023/03/01 00:31:29;;;;;;;;;17.00;12.50;;;;;3.34;52.84;102478.00;5041799;28;45817;-76
2023/03/01 00:33:58;;;;;;;;;15.25;12.25;;;;;3.35;53.53;102491.75;5041775;28;45424;-76
2023/03/01 00:36:26;;;;;;;;;17.75;12.00;;;;;3.31;53.48;102480.50;5024301;28;45290;-76
2023/03/01 00:38:51;;;;;;;;;19.25;12.00;;;;;3.26;53.72;102480.34;5041559;28;46380;-76
2023/03/01 00:41:18;;;;;;;;;15.25;10.50;;;;;3.26;53.86;102484.63;5023357;28;52142;-77
2023/03/01 00:43:44;;;;;;;;;12.75;9.75;;;;;3.24;53.23;102486.28;5041953;28;45324;-77
2023/03/01 00:46:15;;;;;;;;;15.00;12.00;;;;;3.21;53.85;102484.50;5041305;28;45460;-77
2023/03/01 00:48:41;;;;;;;;;19.50;15.00;;;;;3.21;53.93;102489.66;5041472;28;45361;-77
2023/03/01 00:51:08;;;;;;;;;14.00;11.50;;;;;3.21;53.41;102484.50;5025384;28;45410;-77
2023/03/01 00:53:34;;;;;;;;;7.00;7.00;;;;;3.19;53.67;102488.72;5003951;28;45481;-78
2023/03/01 00:56:00;;;;;;;;;20.25;12.25;;;;;3.18;53.35;102492.13;5021447;28;45372;-76
2023/03/01 00:58:25;;;;;;;;;18.25;12.75;;;;;3.12;53.99;102484.25;5021463;28;45440;-77
2023/03/01 01:00:52;;;;;;;;;19.00;12.00;;;;;3.14;54.26;102490.31;5020137;28;69098;-77
2023/03/01 01:03:17;;;;;;;;;18.00;10.50;;;;;3.12;54.17;102488.50;5004284;28;45282;-76
2023/03/01 01:05:43;;;;;;;;;20.00;13.75;;;;;3.04;54.53;102476.28;5021621;28;45298;-77
2023/03/01 01:08:08;;;;;;;;;4.00;2.50;;;;;3.11;54.31;102490.19;5016948;28;73360;-77
2023/03/01 01:10:34;;;;;;;;;13.75;11.00;;;;;3.03;54.23;102482.25;5017377;28;69280;-77
2023/03/01 01:12:59;;;;;;;;;14.50;11.50;;;;;2.97;55.29;102470.91;5018522;28;45414;-77
2023/03/01 01:15:25;;;;;;;;;14.50;12.00;;;;;3.03;55.06;102483.97;5010439;28;45402;-77
2023/03/01 01:17:50;;;;;;;;;15.50;14.00;;;;;3.02;55.09;102487.34;5036774;28;74470;-77
2023/03/01 01:20:16;;;;;;;;;15.00;12.00;;;;;3.02;55.06;102479.63;5037492;28;56111;-76
2023/03/01 01:22:41;;;;;;;;;25.75;12.25;;;;;3.02;56.05;102474.50;5037819;28;45327;-77
2023/03/01 01:25:07;;;;;;;;;21.25;14.50;;;;;3.02;56.64;102471.91;5037806;28;45352;-77
2023/03/01 01:27:32;;;;;;;;;13.50;12.00;;;;;3.02;57.41;102480.50;5037626;28;46243;-77
2023/03/01 01:29:57;;;;;;;;;13.00;9.25;;;;;3.01;56.48;102468.47;5036942;28;57143;-76
2023/03/01 01:32:23;;;;;;;;;16.00;10.50;;;;;2.97;57.01;102465.75;5037220;28;59529;-77
2023/03/01 01:34:48;;;;;;;;;19.00;13.00;;;;;3.00;56.52;102468.44;5036724;28;67146;-77
2023/03/01 01:37:13;;;;;;;;;10.50;6.50;;;;;2.94;56.40;102452.81;5037518;28;45348;-77
2023/03/01 01:39:39;;;;;;;;;25.25;12.75;;;;;2.99;56.29;102457.28;5037733;28;45370;-77
2023/03/01 01:42:04;;;;;;;;;11.75;7.50;;;;;2.98;57.22;102457.22;5036835;28;64088;-77
2023/03/01 01:44:30;;;;;;;;;18.25;10.75;;;;;2.91;57.30;102440.72;5036634;28;63535;-77
2023/03/01 01:47:08;;;;;;;;;18.75;12.75;;;;;2.98;56.50;102455.50;5037213;28;46575;-76
2023/03/01 01:49:36;;;;;;;;;18.50;15.00;;;;;2.97;56.65;102451.22;5034077;28;45995;-77
2023/03/01 01:52:17;;;;;;;;;19.25;10.50;;;;;2.98;56.84;102454.66;5017655;28;45386;-77
2023/03/01 01:54:55;;;;;;;;;15.00;10.00;;;;;2.95;57.29;102447.69;4999834;28;45417;-76
2023/03/01 01:57:34;;;;;;;;;17.50;9.25;;;;;2.94;58.23;102448.53;5017175;28;45485;-77
2023/03/01 02:00:03;;;;;;;;;15.00;12.75;;;;;2.85;57.15;102436.25;4999210;28;45369;-77
2023/03/01 02:02:29;;;;;;;;;20.25;13.00;;;;;2.79;57.49;102427.50;4999681;28;45303;-77
2023/03/01 02:05:03;;;;;;;;;15.00;12.25;;;;;2.85;57.30;102436.25;4998644;28;66044;-77
2023/03/01 02:07:29;;;;;;;;;16.50;12.50;;;;;2.89;57.17;102447.53;5017141;28;45628;-77
2023/03/01 02:09:55;;;;;;;;;12.50;12.00;;;;;2.82;57.89;102435.28;5016506;28;63309;-77
2023/03/01 02:12:24;;;;;;;;;14.00;11.50;;;;;2.78;57.45;102425.75;5017188;28;45346;-77
2023/03/01 02:14:49;;;;;;;;;14.00;11.00;;;;;2.84;57.80;102446.50;5004783;28;45518;-77
2023/03/01 02:17:16;;;;;;;;;21.25;12.25;;;;;2.83;58.29;102437.06;5018675;28;54440;-77
2023/03/01 02:20:06;;;;;;;;;11.00;10.00;;;;;2.79;57.88;102430.94;5017800;28;45976;-77
2023/03/01 02:22:33;;;;;;;;;16.25;13.50;;;;;2.70;57.61;102416.09;5019692;28;45393;-77
2023/03/01 02:25:20;;;;;;;;;14.00;10.25;;;;;2.73;58.62;102425.63;5019190;28;45425;-76
2023/03/01 02:28:00;;;;;;;;;16.25;14.00;;;;;2.73;58.13;102428.19;5036388;28;45432;-77
2023/03/01 02:30:25;;;;;;;;;15.00;10.00;;;;;2.71;58.87;102428.16;5036800;28;45936;-77
2023/03/01 02:32:54;;;;;;;;;17.00;15.00;;;;;2.71;58.94;102424.69;5036283;28;56659;-77
2023/03/01 02:35:20;;;;;;;;;10.50;7.00;;;;;2.71;58.59;102433.28;5018801;28;45341;-77
2023/03/01 02:37:46;;;;;;;;;13.50;11.25;;;;;2.69;60.29;102422.09;5017747;28;73919;-77
2023/03/01 02:40:17;;;;;;;;;12.75;12.00;;;;;2.67;59.98;102426.28;5018894;28;45262;-77
2023/03/01 02:42:50;;;;;;;;;12.50;9.00;;;;;2.63;59.10;102421.88;5019303;28;45247;-77
2023/03/01 02:45:15;;;;;;;;;18.00;11.50;;;;;2.63;59.21;102411.59;5018948;28;45386;-77
2023/03/01 02:47:41;;;;;;;;;18.25;12.00;;;;;2.63;59.88;102421.00;5036234;28;46157;-77
2023/03/01 02:50:38;;;;;;;;;18.50;10.50;;;;;2.62;59.78;102412.44;5027896;28;71610;-77
2023/03/01 02:53:15;;;;;;;;;15.00;10.00;;;;;2.62;59.99;102412.44;4999196;28;45401;-77
2023/03/01 02:55:40;;;;;;;;;17.50;12.00;;;;;2.59;60.20;102409.75;4999090;28;45343;-77
2023/03/01 02:58:06;;;;;;;;;16.50;12.50;;;;;2.57;60.34;102400.25;5015219;28;73138;-77
2023/03/01 03:00:39;;;;;;;;;23.50;11.50;;;;;2.56;61.42;102399.38;5016326;28;45407;-77
2023/03/01 03:03:04;;;;;;;;;21.00;14.50;;;;;2.55;60.42;102396.78;4999239;28;45444;-77
2023/03/01 03:05:31;;;;;;;;;12.00;9.50;;;;;2.54;61.05;102395.03;4997992;28;63679;-77
2023/03/01 03:07:58;;;;;;;;;17.00;10.00;;;;;2.54;60.47;102405.31;5016324;28;45564;-77
2023/03/01 03:10:26;;;;;;;;;27.75;15.00;;;;;2.54;60.94;102401.03;5016409;28;45940;-77
2023/03/01 03:13:13;;;;;;;;;16.00;12.50;;;;;2.54;61.65;102400.16;4998349;28;45381;-77
2023/03/01 03:15:40;;;;;;;;;18.25;9.50;;;;;2.47;61.58;102392.28;5028568;28;45425;-77
2023/03/01 03:18:09;;;;;;;;;15.00;11.50;;;;;2.50;61.48;102391.47;5035890;28;45503;-77
2023/03/01 03:20:35;;;;;;;;;20.00;12.00;;;;;2.45;60.72;102385.31;5018170;28;45829;-77
2023/03/01 03:23:00;;;;;;;;;12.50;7.50;;;;;2.47;61.58;102388.81;5018410;28;45507;-77
2023/03/01 03:25:28;;;;;;;;;14.00;9.50;;;;;2.38;61.44;102373.09;5034748;28;65814;-77
2023/03/01 03:27:56;;;;;;;;;17.50;13.00;;;;;2.47;61.19;102396.50;5036039;28;45372;-77
2023/03/01 03:30:23;;;;;;;;;13.00;10.00;;;;;2.46;61.08;102397.34;5035448;28;45807;-77
2023/03/01 03:32:54;;;;;;;;;16.25;11.25;;;;;2.42;61.46;102388.69;5035955;28;45288;-77
2023/03/01 03:35:25;;;;;;;;;18.75;13.00;;;;;2.43;62.17;102394.69;5035763;28;45503;-77
2023/03/01 03:38:03;;;;;;;;;16.25;12.50;;;;;2.41;62.11;102391.19;5018040;28;45412;-77
2023/03/01 03:40:39;;;;;;;;;18.00;12.50;;;;;2.39;64.00;102390.28;5035441;28;45346;-77
2023/03/01 03:43:07;;;;;;;;;14.00;12.00;;;;;2.30;62.73;102381.47;5018197;28;45335;-77
2023/03/01 03:45:33;;;;;;;;;11.75;11.75;;;;;2.35;62.22;102391.00;5018083;28;45413;-77
2023/03/01 03:47:59;;;;;;;;;18.00;11.50;;;;;2.25;63.33;102372.72;5035271;28;46510;-77
2023/03/01 03:50:25;;;;;;;;;14.50;11.50;;;;;2.32;63.20;102377.25;5025423;28;45488;-77
2023/03/01 03:52:50;;;;;;;;;17.00;12.75;;;;;2.32;63.22;102373.78;5015793;28;45421;-77
2023/03/01 03:55:19;;;;;;;;;18.25;12.75;;;;;2.27;63.23;102360.81;5014575;28;65954;-77
2023/03/01 03:57:51;;;;;;;;;15.25;7.00;;;;;2.31;63.76;102375.47;4998301;28;47184;-77
2023/03/01 04:00:18;;;;;;;;;21.75;12.00;;;;;2.28;63.86;102366.81;5015602;28;45294;-77
2023/03/01 04:02:44;;;;;;;;;18.75;12.25;;;;;2.20;63.45;102352.84;5015735;28;45435;-76
2023/03/01 04:05:11;;;;;;;;;18.75;12.50;;;;;2.28;64.26;102365.09;4998000;28;45355;-78
2023/03/01 04:07:37;;;;;;;;;22.75;16.00;;;;;2.28;63.18;102366.81;5015452;28;46487;-77
2023/03/01 04:10:04;;;;;;;;;18.75;10.00;;;;;2.22;63.91;102374.34;5015327;28;45808;-77
2023/03/01 04:12:29;;;;;;;;;23.00;15.00;;;;;2.21;64.08;102376.03;5015650;28;45477;-77
2023/03/01 04:14:55;;;;;;;;;9.00;4.00;;;;;2.20;64.70;102375.97;5021941;28;45537;-78
2023/03/01 04:17:21;;;;;;;;;26.50;13.00;;;;;2.17;64.89;102379.31;5035004;28;53218;-77
2023/03/01 04:19:48;;;;;;;;;15.00;13.00;;;;;2.12;65.12;102374.03;5035505;28;45881;-77
2023/03/01 04:22:17;;;;;;;;;21.50;16.00;;;;;2.11;64.16;102368.84;5035623;28;45309;-78
2023/03/01 04:24:43;;;;;;;;;15.00;13.25;;;;;2.12;64.61;102374.03;5035073;28;45721;-77
2023/03/01 04:27:08;;;;;;;;;19.25;14.50;;;;;2.13;65.33;102362.06;5035221;28;46451;-77
2023/03/01 04:29:34;;;;;;;;;15.25;12.00;;;;;2.09;65.79;102367.94;5035113;28;45385;-77
2023/03/01 04:31:59;;;;;;;;;17.25;15.25;;;;;2.07;65.39;102369.56;5034816;28;54067;-78
2023/03/01 04:34:26;;;;;;;;;25.50;13.50;;;;;1.99;65.76;102356.50;5034697;28;58711;-78
2023/03/01 04:36:52;;;;;;;;;17.25;14.00;;;;;2.04;67.09;102364.31;5034807;28;46139;-77
2023/03/01 04:39:17;;;;;;;;;15.50;11.50;;;;;2.01;65.92;102353.97;5034725;28;45388;-77
2023/03/01 04:41:43;;;;;;;;;17.50;14.25;;;;;2.06;66.24;102366.16;5034721;28;55822;-77
2023/03/01 04:44:09;;;;;;;;;15.25;9.25;;;;;2.04;66.36;102359.19;5038514;28;45285;-77
2023/03/01 04:46:34;;;;;;;;;12.00;12.00;;;;;1.91;66.21;102345.97;5038377;28;45400;-76
2023/03/01 04:49:00;;;;;;;;;15.25;12.00;;;;;2.01;66.79;102362.53;5038338;28;45460;-77
2023/03/01 04:51:25;;;;;;;;;15.75;12.75;;;;;2.00;66.65;102352.22;5019436;28;51365;-77
2023/03/01 04:53:51;;;;;;;;;23.00;15.75;;;;;1.98;68.03;102343.59;5018321;28;45324;-77
2023/03/01 04:56:19;;;;;;;;;18.75;14.00;;;;;2.02;67.69;102355.69;5018151;28;46468;-77
2023/03/01 04:58:45;;;;;;;;;20.25;17.50;;;;;1.98;70.11;102346.16;5018378;28;45883;-77
2023/03/01 05:01:16;;;;;;;;;16.25;12.50;;;;;1.94;69.60;102352.91;5018336;28;45415;-77
2023/03/01 05:03:47;;;;;;;;;15.50;11.50;;;;;1.94;68.20;102342.63;5018595;28;45479;-77
2023/03/01 05:06:13;;;;;;;;;27.50;15.00;;;;;1.92;68.88;102340.00;5000261;28;46868;-77
2023/03/01 05:08:39;;;;;;;;;17.25;13.50;;;;;1.89;69.05;102341.59;5017855;28;45326;-77
2023/03/01 05:11:05;;;;;;;;;17.00;13.50;;;;;1.88;69.56;102338.16;5000716;28;45378;-77
2023/03/01 05:13:30;;;;;;;;;21.00;16.50;;;;;1.94;68.23;102352.91;5018192;28;45395;-76
2023/03/01 05:15:57;;;;;;;;;14.50;14.00;;;;;1.95;68.84;102354.66;5032787;28;45861;-77
2023/03/01 05:18:25;;;;;;;;;20.00;14.50;;;;;1.98;68.79;102356.44;5020080;28;45206;-77
2023/03/01 05:20:51;;;;;;;;;26.00;17.75;;;;;1.97;69.15;102349.53;5037951;28;45392;-77
2023/03/01 05:23:18;;;;;;;;;22.00;13.50;;;;;1.96;68.81;102355.50;5037545;28;45523;-77
2023/03/01 05:25:44;;;;;;;;;17.50;14.00;;;;;1.91;69.44;102339.94;5037733;28;47204;-76
2023/03/01 05:28:12;;;;;;;;;11.25;10.00;;;;;1.94;69.97;102358.88;5019901;28;45427;-77
2023/03/01 05:30:41;;;;;;;;;18.50;15.00;;;;;1.86;69.50;102339.81;5037887;28;45381;-77
2023/03/01 05:33:13;;;;;;;;;23.75;20.00;;;;;1.89;70.02;102333.88;5037872;28;45341;-77
2023/03/01 05:35:39;;;;;;;;;25.25;17.00;;;;;1.93;70.16;102338.28;5037513;28;47477;-77
2023/03/01 05:38:05;;;;;;;;;21.25;15.00;;;;;1.91;69.79;102338.28;5037306;28;45994;-77
2023/03/01 05:40:33;;;;;;;;;19.00;12.00;;;;;1.91;69.79;102339.94;5037184;28;62145;-77
2023/03/01 05:42:58;;;;;;;;;19.00;16.00;;;;;1.88;69.87;102337.28;5019811;28;45376;-76
2023/03/01 05:45:24;;;;;;;;;31.50;12.50;;;;;1.92;70.49;102340.00;5036508;28;68454;-77
2023/03/01 05:47:51;;;;;;;;;20.75;15.50;;;;;1.90;70.93;102341.66;5037498;28;45269;-77
2023/03/01 05:50:25;;;;;;;;;30.00;17.00;;;;;1.92;70.66;102340.00;5028585;28;45445;-77
2023/03/01 05:52:59;;;;;;;;;23.50;17.00;;;;;1.93;70.81;102340.84;5017318;28;45386;-77
2023/03/01 05:55:25;;;;;;;;;24.25;15.75;;;;;1.91;70.46;102338.28;4999584;28;46338;-77
2023/03/01 05:57:50;;;;;;;;;17.50;12.00;;;;;1.89;70.57;102339.88;4999836;28;45326;-77
2023/03/01 06:00:18;;;;;;;;;20.25;16.25;;;;;1.88;70.18;102350.13;5017529;28;45528;-77
2023/03/01 06:02:44;;;;;;;;;30.75;21.50;;;;;1.84;70.10;102331.19;5017567;28;45345;-77
2023/03/01 06:05:11;;;;;;;;;25.25;20.50;;;;;1.82;70.47;102339.63;5017297;28;46496;-77
2023/03/01 06:07:37;;;;;;;;;24.00;16.00;;;;;1.79;71.31;102334.44;5017391;28;45976;-77
2023/03/01 06:10:03;;;;;;;;;24.25;18.50;;;;;1.79;71.88;102337.00;5017582;28;45365;-77
2023/03/01 06:12:33;;;;;;;;;26.00;18.50;;;;;1.77;71.34;102334.38;5017261;28;45553;-77
2023/03/01 06:14:59;;;;;;;;;21.75;16.00;;;;;1.68;71.78;102327.22;5023850;28;45762;-77
2023/03/01 06:17:24;;;;;;;;;22.00;16.50;;;;;1.67;71.36;102328.06;5037108;28;45318;-76
2023/03/01 06:19:49;;;;;;;;;22.00;17.00;;;;;1.61;71.41;102320.13;5036875;28;45703;-76
2023/03/01 06:22:15;;;;;;;;;28.00;21.00;;;;;1.65;72.33;102328.81;5037140;28;45432;-77
2023/03/01 06:24:40;;;;;;;;;27.00;21.50;;;;;1.60;72.33;102317.50;5036701;28;46530;-76
2023/03/01 06:27:05;;;;;;;;;22.50;20.00;;;;;1.63;72.11;102315.06;5036477;28;56772;-76
2023/03/01 06:29:31;;;;;;;;;27.50;22.50;;;;;1.55;73.03;102301.97;5036310;28;62736;-76
2023/03/01 06:31:56;;;;;;;;;21.50;20.00;;;;;1.48;73.27;102295.75;5036000;28;64197;-76
2023/03/01 06:34:21;;;;;;;;;28.75;21.00;;;;;1.59;73.35;102311.53;5035566;28;65680;-76
2023/03/01 06:36:47;;;;;;;;;38.25;22.00;;;;;1.61;73.06;102315.00;5035878;28;65830;-76
2023/03/01 06:39:12;;;;;;;;;30.00;21.25;;;;;1.62;73.95;102313.34;5036923;28;45360;-76
2023/03/01 06:41:37;;;;;;;;;25.50;19.50;;;;;1.61;73.79;102312.44;5036054;28;62078;-76
2023/03/01 06:44:03;;;;;;;;;32.50;24.50;;;;;1.64;73.91;102314.25;5035726;28;69780;-76
2023/03/01 06:46:28;;;;;;;;;20.50;20.00;;;;;1.62;73.63;102311.63;5036634;28;45500;-77
2023/03/01 06:48:54;;;;;;;;;31.75;21.00;;;;;1.65;73.95;102314.28;5036101;28;45702;-77
2023/03/01 06:51:19;;;;;;;;;25.50;19.50;;;;;1.66;75.77;102312.59;5018107;28;67370;-76
2023/03/01 06:53:46;;;;;;;;;29.00;24.25;;;;;1.64;75.40;102307.41;5015648;28;74210;-76
2023/03/01 06:56:11;;;;;;;;;32.00;24.00;;;;;1.64;74.63;102306.56;5016395;28;45307;-76
2023/03/01 06:58:36;;;;;;;;;34.75;24.25;;;;;1.60;74.28;102295.31;5016507;28;45880;-76
2023/03/01 07:01:06;;;;;;;;;34.25;24.50;;;;;1.65;74.09;102309.16;5016610;28;45362;-76
2023/03/01 07:03:31;;;;;;;;;25.50;20.25;;;;;1.64;76.34;102298.84;5016106;28;47130;-76
2023/03/01 07:05:57;;;;;;;;;31.25;24.00;;;;;1.58;75.04;102289.25;5014727;28;61883;-77
2023/03/01 07:08:22;;;;;;;;;36.50;23.50;;;;;1.60;75.89;102295.31;5015754;28;64211;-77
2023/03/01 07:10:47;;;;;;;;;27.00;21.25;;;;;1.62;75.54;102298.78;5016404;28;45356;-76
2023/03/01 07:13:13;;;;;;;;;40.75;24.00;;;;;1.67;75.11;102297.25;5016436;28;46290;-76
2023/03/01 07:15:40;;;;;;;;;36.25;26.50;;;;;1.68;76.34;102304.13;5028166;28;51482;-76
2023/03/01 07:18:05;;;;;;;;;29.25;22.00;;;;;1.68;76.55;102296.41;5035834;28;45374;-76
2023/03/01 07:20:30;;;;;;;;;29.50;23.00;;;;;1.72;76.08;102303.41;5017528;28;66724;-76
2023/03/01 07:22:58;;;;;;;;;30.75;22.50;;;;;1.72;76.01;102292.25;5017251;28;73189;-76
2023/03/01 07:25:23;;;;;;;;;24.75;24.50;;;;;1.79;76.72;102301.91;5035779;28;45889;-77
2023/03/01 07:27:52;;;;;;;;;40.25;28.00;;;;;1.80;77.14;102293.41;5018206;28;45322;-76
2023/03/01 07:30:18;;;;;;;;;30.00;24.25;;;;;1.85;77.92;102298.66;5001618;28;45653;-76
2023/03/01 07:32:45;;;;;;;;;31.25;25.00;;;;;1.89;76.70;102293.66;5017740;28;45640;-76
2023/03/01 07:35:10;;;;;;;;;46.00;28.00;;;;;1.93;77.49;102300.66;5018135;28;45412;-76
2023/03/01 07:37:36;;;;;;;;;41.25;30.00;;;;;1.92;79.39;102293.78;5035768;28;45172;-76
2023/03/01 07:40:01;;;;;;;;;34.50;27.50;;;;;2.00;78.03;102300.84;5035952;28;45456;-76
2023/03/01 07:42:26;;;;;;;;;39.00;31.00;;;;;2.02;77.57;102302.63;5035739;28;45448;-77
2023/03/01 07:44:52;;;;;;;;;33.50;26.00;;;;;2.06;77.80;102294.22;5034897;28;69888;-77
2023/03/01 07:47:17;;;;;;;;;25.75;23.50;;;;;2.06;77.68;102289.09;5034981;28;56228;-77
2023/03/01 07:49:42;;;;;;;;;33.75;24.50;;;;;2.13;77.23;102290.97;5030740;28;58182;-76
2023/03/01 07:52:11;;;;;;;;;32.75;21.75;;;;;2.18;76.52;102298.84;5014793;28;70024;-77
2023/03/01 07:54:36;;;;;;;;;34.00;22.00;;;;;2.19;77.27;102292.91;4998094;28;45965;-76
2023/03/01 07:57:02;;;;;;;;;33.75;24.25;;;;;2.23;77.94;102291.25;5014586;28;68074;-76
2023/03/01 07:59:28;;;;;;;;;32.25;26.50;;;;;2.15;77.03;102275.63;5015749;28;45368;-76
2023/03/01 08:01:57;;;;;;;;;36.00;26.00;;;;;2.20;77.12;102273.22;5015166;28;45345;-77
2023/03/01 08:04:24;;;;;;;;;38.75;27.25;;;;;2.37;76.25;102297.69;5015487;28;45438;-77
2023/03/01 08:06:50;;;;;;;;;34.75;24.25;;;;;2.37;76.21;102294.28;5015656;28;45370;-77
2023/03/01 08:09:15;;;;;;;;;38.50;25.25;;;;;2.42;76.80;102298.72;5015658;28;45463;-77
2023/03/01 08:11:41;;;;;;;;;42.75;29.25;;;;;2.46;76.86;102297.13;5014697;28;70476;-77
2023/03/01 08:14:06;;;;;;;;;26.75;20.00;;;;;2.44;76.60;102286.78;5015279;28;45422;-77
2023/03/01 08:16:33;;;;;;;;;31.00;25.50;;;;;2.51;76.48;102300.69;5035831;28;47184;-77
2023/03/01 08:19:06;;;;;;;;;27.75;16.25;;;;;2.56;76.47;102293.97;5038947;28;45576;-76
2023/03/01 08:21:32;;;;;;;;;33.75;26.25;;;;;2.59;76.82;102285.50;5038755;28;46361;-77
2023/03/01 08:23:57;;;;;;;;;34.25;26.75;;;;;2.71;78.14;102298.69;5021022;28;45364;-77
2023/03/01 08:26:22;;;;;;;;;33.25;27.00;;;;;2.77;77.24;102292.84;5038593;28;45341;-77
2023/03/01 08:28:49;;;;;;;;;29.00;23.50;;;;;2.88;76.36;102294.03;5037946;28;66882;-77
2023/03/01 08:31:17;;;;;;;;;37.75;27.25;;;;;2.95;76.17;102295.06;5038343;28;45523;-77
2023/03/01 08:33:42;;;;;;;;;38.00;24.50;;;;;3.01;75.71;102290.06;5038944;28;45885;-77
2023/03/01 08:36:08;;;;;;;;;33.00;27.00;;;;;3.05;75.14;102273.91;5038786;28;45389;-77
2023/03/01 08:38:35;;;;;;;;;29.00;23.00;;;;;3.15;75.25;102285.31;5037871;28;69610;-77
2023/03/01 08:41:01;;;;;;;;;29.25;21.00;;;;;3.20;74.72;102276.03;5038592;28;45622;-77
2023/03/01 08:43:26;;;;;;;;;32.00;25.50;;;;;3.25;74.88;102280.44;5038647;28;45425;-77
2023/03/01 08:45:52;;;;;;;;;34.50;23.50;;;;;3.29;74.07;102274.53;5037302;28;66848;-77
2023/03/01 08:48:17;;;;;;;;;38.50;27.75;;;;;3.31;74.44;102269.44;5037882;28;66187;-77
2023/03/01 08:50:42;;;;;;;;;37.50;26.00;;;;;3.36;74.25;102278.16;5024907;28;69172;-77
2023/03/01 08:53:08;;;;;;;;;33.50;28.00;;;;;3.40;74.27;102258.50;5017725;28;66384;-77
2023/03/01 08:55:33;;;;;;;;;29.00;24.25;;;;;3.48;74.91;102257.84;5017873;28;63322;-77
2023/03/01 08:57:59;;;;;;;;;37.50;29.00;;;;;3.57;74.50;102252.06;5017627;28;64539;-77
2023/03/01 09:00:24;;;;;;;;;31.50;22.50;;;;;3.63;74.51;102257.34;5017991;28;46264;-77
2023/03/01 09:02:50;;;;;;;;;32.00;27.50;;;;;3.67;74.16;102248.88;5000540;28;45389;-77
2023/03/01 09:05:15;;;;;;;;;26.00;22.00;;;;;3.72;73.75;102243.84;5017659;28;63672;-76
2023/03/01 09:07:41;;;;;;;;;39.50;23.00;;;;;3.78;73.68;102245.69;5018501;28;45500;-76
2023/03/01 09:10:06;;;;;;;;;32.50;25.50;;;;;3.84;73.66;102243.25;5018179;28;46111;-76
2023/03/01 09:12:32;;;;;;;;;29.00;19.75;;;;;3.85;73.59;102226.97;5018165;28;45231;-77
2023/03/01 09:14:57;;;;;;;;;28.25;23.00;;;;;3.93;72.88;102227.13;5023661;28;62790;-77
2023/03/01 09:17:22;;;;;;;;;35.50;25.50;;;;;3.99;72.56;102217.84;5038014;28;45425;-76
2023/03/01 09:19:48;;;;;;;;;26.50;21.00;;;;;4.09;72.47;102221.47;5019574;28;63068;-77
2023/03/01 09:22:13;;;;;;;;;32.50;26.00;;;;;4.16;72.13;102225.03;5038015;28;45493;-76
2023/03/01 09:24:40;;;;;;;;;35.75;24.75;;;;;4.22;71.65;102217.47;5037291;28;56157;-77
2023/03/01 09:27:08;;;;;;;;;28.50;20.00;;;;;4.21;72.95;102206.25;5038012;28;45415;-77
2023/03/01 09:29:35;;;;;;;;;37.50;27.00;;;;;4.37;71.71;102228.09;5036888;28;47388;-77
2023/03/01 09:32:00;;;;;;;;;26.75;22.50;;;;;4.42;71.59;102217.84;5037827;28;45805;-76
2023/03/01 09:34:26;;;;;;;;;35.00;29.75;;;;;4.41;70.94;102205.81;5037929;28;45615;-77
2023/03/01 09:36:51;;;;;;;;;39.00;27.00;;;;;4.48;70.42;102218.00;5037690;28;45318;-76
2023/03/01 09:39:20;;;;;;;;;33.00;26.25;;;;;4.45;70.37;102202.44;5037969;28;45490;-77
2023/03/01 09:42:01;;;;;;;;;38.00;28.50;;;;;4.53;70.80;102212.91;5037752;28;45957;-77
2023/03/01 09:44:42;;;;;;;;;29.75;24.00;;;;;4.60;70.51;102202.75;5019774;28;45436;-76
2023/03/01 09:47:24;;;;;;;;;32.00;23.50;;;;;4.62;69.69;102211.41;5019780;28;45583;-77
2023/03/01 09:50:05;;;;;;;;;21.25;17.25;;;;;4.68;69.56;102202.03;5032243;28;46467;-77
2023/03/01 09:53:14;;;;;;;;;30.75;23.75;;;;;4.72;69.61;102203.81;5017822;28;45936;-76
2023/03/01 09:55:59;;;;;;;;;30.00;23.00;;;;;4.78;69.86;102199.66;5004344;28;45562;-76
2023/03/01 09:58:44;;;;;;;;;31.50;25.50;;;;;4.83;68.81;102208.34;4999466;28;45568;-76
2023/03/01 10:01:11;;;;;;;;;27.25;19.75;;;;;4.87;69.19;102201.53;5017453;28;46362;-77
2023/03/01 10:03:43;;;;;;;;;27.00;21.25;;;;;4.89;68.80;102191.25;4999542;28;45971;-76
2023/03/01 10:06:14;;;;;;;;;32.75;24.25;;;;;4.99;68.90;102195.72;4999916;28;45342;-77
2023/03/01 10:09:00;;;;;;;;;34.00;22.50;;;;;5.09;68.83;102183.81;4999758;28;45668;-77
2023/03/01 10:11:28;;;;;;;;;29.25;24.75;;;;;5.16;68.32;102186.56;5017328;28;46422;-77
2023/03/01 10:14:15;;;;;;;;;29.00;23.25;;;;;5.23;67.84;102166.84;4999679;28;45877;-76
2023/03/01 10:17:31;;;;;;;;;31.75;22.75;;;;;5.33;67.19;102179.09;4999410;28;45369;-76
2023/03/01 10:20:20;;;;;;;;;23.25;21.50;;;;;5.40;67.07;102169.69;4936583;28;45553;-77
2023/03/01 10:22:50;;;;;;;;;36.75;23.25;;;;;5.46;66.98;102167.25;4935976;28;46426;-77
2023/03/01 10:25:18;;;;;;;;;32.75;25.00;;;;;5.56;66.63;102166.50;4936513;28;45941;-77
2023/03/01 10:27:53;;;;;;;;;23.50;22.50;;;;;5.66;66.95;102154.59;4920781;28;45433;-77
2023/03/01 10:30:42;;;;;;;;;40.25;26.25;;;;;5.81;66.38;102166.84;4920633;28;45493;-76
2023/03/01 10:33:21;;;;;;;;;27.75;23.25;;;;;5.91;66.39;102163.56;4920918;28;47189;-77
2023/03/01 10:35:47;;;;;;;;;31.50;24.50;;;;;6.01;65.63;102164.56;4920401;28;46126;-76
2023/03/01 10:38:14;;;;;;;;;41.25;22.00;;;;;6.11;65.77;102165.53;4936201;28;45416;-77
2023/03/01 10:40:59;;;;;;;;;32.50;25.25;;;;;6.18;65.40;102175.13;4918900;28;45402;-77
2023/03/01 10:43:49;;;;;;;;;30.25;22.75;;;;;6.25;64.77;102170.91;4919804;28;46493;-76
2023/03/01 10:46:33;;;;;;;;;34.50;23.75;;;;;6.31;64.45;102174.41;4936119;28;45381;-77
2023/03/01 10:49:18;;;;;;;;;33.75;24.25;;;;;6.33;64.49;102164.09;4965290;28;45323;-77
2023/03/01 10:51:47;;;;;;;;;37.25;24.00;;;;;6.40;64.28;102153.81;4955770;28;45228;-76
2023/03/01 10:54:20;;;;;;;;;34.25;23.75;;;;;6.49;63.42;102154.78;4958994;28;45817;-77
2023/03/01 10:56:55;;;;;;;;;27.00;20.75;;;;;6.59;63.58;102156.59;5014894;28;46368;-77
2023/03/01 10:59:29;;;;;;;;;29.00;20.75;;;;;6.69;63.62;102142.94;5015325;28;45436;-77
2023/03/01 11:02:15;;;;;;;;;36.50;22.75;;;;;6.87;63.53;102151.69;5016527;28;45349;-77
2023/03/01 11:04:56;;;;;;;;;30.00;20.00;;;;;6.95;63.25;102142.31;5016189;28;46574;-77
2023/03/01 11:07:21;;;;;;;;;31.25;21.75;;;;;7.05;62.62;102145.81;5015240;28;45914;-77
2023/03/01 11:09:47;;;;;;;;;34.50;24.75;;;;;7.15;62.73;102143.34;5015619;28;58362;-76
2023/03/01 11:12:16;;;;;;;;;32.25;26.50;;;;;7.28;62.63;102138.22;5015715;28;65164;-77
2023/03/01 11:14:51;;;;;;;;;26.00;21.50;;;;;7.38;61.64;102131.41;5052810;27;46388;-77
2023/03/01 11:17:23;;;;;;;;;35.50;20.25;;;;;7.45;60.96;102122.81;5068439;28;45931;-77
2023/03/01 11:20:10;;;;;;;;;35.50;26.50;;;;;7.55;61.06;102134.97;5068716;28;45500;-77
2023/03/01 11:22:35;;;;;;;;;23.75;19.00;;;;;7.65;60.60;102123.81;5035060;28;45456;-77
2023/03/01 11:25:01;;;;;;;;;41.00;22.25;;;;;7.84;60.36;102121.31;5035517;28;46574;-77